Flight Track Log - Related Links

Times and Time Zones

All times are in EDT time to prevent confusion due to time zone crossing. See the EJA982 flight status page for this flight to view local times or setup timezone preferences in your user account.

Time Position Orientation Groundspeed Altitude Reporting Facility
EDT Latitude Longitude Course Direction KTS MPH feet Rate Location/Type
Fri 07:20:57 PM 41.2278 -95.8886 177° South 216 249 4,200  Level Minneapolis Center
Fri 07:21:22 PM 41.2183 -95.8997 222° Southwest 226 260 4,600 3,055 Climbing Minneapolis Center
Fri 07:21:52 PM 41.1953 -95.9644 245° Southwest 283 326 7,000 4,452 Climbing Minneapolis Center
Fri 07:22:24 PM 41.1769 -96.0103 242° Southwest 263 303 9,200 3,574 Climbing Minneapolis Center
Fri 07:23:26 PM 41.1381 -96.1122 243° Southwest 298 343 12,600 2,516 Climbing Minneapolis Center
Fri 07:24:28 PM 41.0939 -96.2439 246° West 366 421 14,400 1,645 Climbing Minneapolis Center
Fri 07:25:30 PM 41.0456 -96.3847 246° West 395 455 16,000 1,645 Climbing Minneapolis Center
Fri 07:26:32 PM 40.9969 -96.5300 246° West 413 475 17,800 1,790 Climbing Minneapolis Center
Fri 07:27:34 PM 40.9481 -96.6722 246° West 422 486 19,700 1,887 Climbing Minneapolis Center
Fri 07:28:36 PM 40.9000 -96.8192 247° West 428 493 21,700 2,081 Climbing Minneapolis Center
Fri 07:29:38 PM 40.8500 -96.9981 250° West 431 496 24,000 1,887 Climbing Minneapolis Center
Fri 07:30:40 PM 40.8064 -97.1514 249° West 437 503 25,600 1,500 Climbing Minneapolis Center
Fri 07:31:42 PM 40.7622 -97.3108 250° West 447 514 27,100 1,440 Climbing Minneapolis Center
Fri 07:32:45 PM 40.7147 -97.4714 249° West 463 533 28,600 1,440 Climbing Minneapolis Center
Fri 07:33:47 PM 40.6681 -97.6331 249° West 469 540 30,100 1,452 Climbing Minneapolis Center
Fri 07:34:49 PM 40.6203 -97.7953 249° West 472 543 31,600 1,452 Climbing Minneapolis Center
Fri 07:35:51 PM 40.5733 -97.9589 249° West 475 547 33,100 1,645 Climbing Minneapolis Center
Fri 07:36:53 PM 40.5433 -98.1650 259° West 475 547 35,000 1,839 Climbing Minneapolis Center
Fri 07:37:55 PM 40.5208 -98.3333 260° West 470 541 36,900 1,645 Climbing Minneapolis Center
Fri 07:38:57 PM 40.5019 -98.4997 262° West 462 532 38,400 1,210 Climbing Minneapolis Center
Fri 07:39:59 PM 40.4578 -98.6572 250° West 458 527 39,400 774 Climbing Minneapolis Center
Fri 07:41:01 PM 40.4050 -98.8117 246° West 460 529 40,000 286 Climbing Minneapolis Center
Fri 07:42:05 PM 40.3533 -98.9686 247° West 464 534 40,000  Level Denver Center
Fri 07:43:07 PM 40.2886 -99.1589 246° West 473 544 40,000  Level Denver Center
Fri 07:44:09 PM 40.2342 -99.3150 245° Southwest 471 542 40,000  Level Denver Center
Fri 07:45:11 PM 40.1808 -99.4731 246° West 473 544 40,000  Level Denver Center
Fri 07:46:13 PM 40.1264 -99.6317 246° West 478 550 40,000  Level Denver Center
Fri 07:47:15 PM 40.0714 -99.7883 245° Southwest 475 547 40,000  Level Denver Center
Fri 07:48:17 PM 40.0161 -99.9472 246° West 478 550 40,000  Level Denver Center
Fri 07:49:19 PM 39.9608 -100.1067 246° West 482 555 40,000  Level Denver Center
Fri 07:50:34 PM 39.8850 -100.3203 245° Southwest 481 554 40,000  Level Denver Center
Fri 07:51:36 PM 39.8303 -100.4725 245° Southwest 483 556 40,000  Level Denver Center
Fri 07:52:38 PM 39.7667 -100.6525 245° Southwest 487 560 40,000  Level Denver Center
Fri 07:53:40 PM 39.7111 -100.8058 245° Southwest 488 562 40,000  Level Denver Center
Fri 07:54:42 PM 39.6472 -100.9839 245° Southwest 488 562 40,000  Level Denver Center
Fri 07:55:44 PM 39.5919 -101.1350 245° Southwest 484 557 40,000  Level Denver Center
Fri 07:56:46 PM 39.5272 -101.3128 245° Southwest 487 560 40,000  Level Denver Center
Fri 07:57:47 PM 39.4719 -101.4647 245° Southwest 487 560 40,000  Level Denver Center
Fri 07:58:49 PM 39.4161 -101.6147 244° Southwest 485 558 40,000  Level Denver Center
Fri 07:59:51 PM 39.3503 -101.7906 244° Southwest 486 559 40,000  Level Denver Center
Fri 08:00:53 PM 39.2925 -101.9364 243° Southwest 483 556 40,000  Level Denver Center
Fri 08:01:55 PM 39.2267 -102.1100 244° Southwest 483 556 40,000  Level Denver Center
Fri 08:02:57 PM 39.1689 -102.2578 243° Southwest 485 558 40,000  Level Denver Center
Fri 08:03:59 PM 39.1022 -102.4294 243° Southwest 482 555 40,000  Level Denver Center
Fri 08:05:01 PM 39.0439 -102.5778 243° Southwest 484 557 40,000  Level Denver Center
Fri 08:06:03 PM 38.9767 -102.7497 243° Southwest 484 557 40,000  Level Denver Center
Fri 08:07:05 PM 38.9094 -102.9178 243° Southwest 487 560 40,000  Level Denver Center
Fri 08:08:07 PM 38.8481 -103.0742 243° Southwest 486 559 40,000  Level Denver Center
Fri 08:09:09 PM 38.7853 -103.2292 243° Southwest 486 559 40,000  Level Denver Center
Fri 08:10:11 PM 38.7219 -103.3856 243° Southwest 489 563 40,000  Level Denver Center
Fri 08:11:13 PM 38.6558 -103.5483 243° Southwest 485 558 40,000  Level Denver Center
Fri 08:12:15 PM 38.5967 -103.6961 243° Southwest 489 563 40,000  Level Denver Center
Fri 08:13:17 PM 38.5267 -103.8669 242° Southwest 489 563 40,000  Level Denver Center
Fri 08:14:19 PM 38.4658 -104.0144 242° Southwest 491 565 40,000  Level Denver Center
Fri 08:15:21 PM 38.4042 -104.1647 242° Southwest 493 567 40,000  Level Denver Center
Fri 08:16:23 PM 38.3283 -104.3483 242° Southwest 495 570 40,000  Level Denver Center
Fri 08:17:37 PM 38.2533 -104.5311 242° Southwest 493 567 40,000  Level Denver Center
Fri 08:18:39 PM 38.1950 -104.6786 243° Southwest 491 565 40,000  Level Denver Center
Fri 08:19:41 PM 38.1256 -104.8500 243° Southwest 491 565 40,000  Level Denver Center
Fri 08:20:43 PM 38.0669 -104.9981 243° Southwest 492 566 40,000  Level Denver Center
Fri 08:21:45 PM 37.9956 -105.1706 242° Southwest 496 571 40,000  Level Denver Center
Fri 08:22:47 PM 37.9361 -105.3167 243° Southwest 491 565 40,000  Level Denver Center
Fri 08:23:48 PM 37.8647 -105.4919 243° Southwest 493 567 40,000  Level Denver Center
Fri 08:24:50 PM 37.8044 -105.6358 242° Southwest 495 570 40,000  Level Denver Center
Fri 08:25:52 PM 37.7347 -105.8075 243° Southwest 494 568 40,000  Level Denver Center
Fri 08:26:54 PM 37.6725 -105.9539 242° Southwest 494 568 40,000  Level Denver Center
Fri 08:27:56 PM 37.6003 -106.1264 242° Southwest 499 574 40,000  Level Denver Center
Fri 08:29:10 PM 37.5425 -106.2661 242° Southwest 495 570 40,000  Level Denver Center
Fri 08:30:12 PM 37.4600 -106.4625 242° Southwest 498 573 40,000  Level Denver Center
Fri 08:31:14 PM 37.3969 -106.6089 242° Southwest 497 572 40,000  Level Denver Center
Fri 08:32:15 PM 37.3231 -106.7806 242° Southwest 501 577 40,000  Level Denver Center
Fri 08:33:17 PM 37.2708 -106.9033 242° Southwest 501 577 40,000  Level Denver Center
Fri 08:34:19 PM 37.1861 -107.0981 241° Southwest 499 574 40,000  Level Denver Center
Fri 08:35:21 PM 37.1233 -107.2450 242° Southwest 499 574 40,000  Level Denver Center
Fri 08:36:23 PM 37.0494 -107.4147 241° Southwest 497 572 40,000  Level Denver Center
Fri 08:37:24 PM 36.9978 -107.5347 242° Southwest 495 570 40,000  Level Denver Center
Fri 08:38:26 PM 36.9133 -107.7256 241° Southwest 492 566 40,000  Level Denver Center
Fri 08:39:28 PM 36.8506 -107.8692 241° Southwest 493 567 40,000  Level Denver Center
Fri 08:40:30 PM 36.7775 -108.0317 241° Southwest 483 556 40,000  Level Denver Center
Fri 08:41:31 PM 36.7172 -108.1728 242° Southwest 481 554 40,000  Level Denver Center
Fri 08:42:33 PM 36.6575 -108.3136 242° Southwest 482 555 40,000  Level Denver Center
Fri 08:43:35 PM 36.5861 -108.4781 242° Southwest 483 556 40,000  Level Denver Center
Fri 08:44:37 PM 36.5267 -108.6194 242° Southwest 485 558 40,000  Level Denver Center
Fri 08:45:38 PM 36.4556 -108.7825 242° Southwest 483 556 40,000  Level Denver Center
Fri 08:46:40 PM 36.3956 -108.9219 242° Southwest 483 556 40,000  Level Denver Center
Fri 08:47:42 PM 36.3247 -109.0825 241° Southwest 481 554 40,000  Level Denver Center
Fri 08:48:43 PM 36.2642 -109.2206 241° Southwest 481 554 40,000  Level Denver Center
Fri 08:49:45 PM 36.1922 -109.3819 241° Southwest 483 556 40,000  Level Denver Center
Fri 08:50:46 PM 36.1308 -109.5219 242° Southwest 484 557 40,000  Level Denver Center
Fri 08:52:00 PM 36.0589 -109.6850 241° Southwest 485 558 40,000  Level Denver Center
Fri 08:53:02 PM 35.9856 -109.8447 240° Southwest 481 554 40,000  Level Denver Center
Fri 08:54:04 PM 35.9153 -110.0058 242° Southwest 479 551 40,000  Level Denver Center
Fri 08:55:05 PM 35.8517 -110.1444 241° Southwest 476 548 40,000  Level Denver Center
Fri 08:55:28 PM 35.8192 -110.2092 238° Southwest 477 549 40,000  Level Albuquerque Center
Fri 08:56:29 PM 35.7581 -110.3450 241° Southwest 476 548 40,000  Level Albuquerque Center
Fri 08:57:31 PM 35.6950 -110.4797 240° Southwest 474 545 40,000  Level Albuquerque Center
Fri 08:58:32 PM 35.6222 -110.6389 241° Southwest 478 550 40,000  Level Albuquerque Center
Fri 08:59:34 PM 35.5614 -110.7756 241° Southwest 478 550 40,000  Level Albuquerque Center
Fri 09:00:35 PM 35.4858 -110.9353 240° Southwest 482 555 40,000  Level Albuquerque Center
Fri 09:01:37 PM 35.4225 -111.0728 241° Southwest 485 558 40,000  Level Albuquerque Center
Fri 09:02:38 PM 35.3592 -111.2100 241° Southwest 485 558 40,000  Level Albuquerque Center
Fri 09:03:40 PM 35.2853 -111.3772 242° Southwest 490 564 40,000  Level Albuquerque Center
Fri 09:04:41 PM 35.2181 -111.5206 240° Southwest 489 563 40,000  Level Albuquerque Center
Fri 09:05:43 PM 35.1597 -111.6653 244° Southwest 481 554 40,000  Level Albuquerque Center
Fri 09:06:44 PM 35.1208 -111.8078 252° West 479 551 40,000  Level Albuquerque Center
Fri 09:07:46 PM 35.0789 -111.9619 252° West 481 554 40,000  Level Albuquerque Center
Fri 09:08:47 PM 35.0281 -112.1444 251° West 476 548 40,000  Level Albuquerque Center
Fri 09:09:49 PM 34.9861 -112.2978 252° West 476 548 40,000  Level Albuquerque Center
Fri 09:10:50 PM 34.9425 -112.4517 251° West 478 550 40,000  Level Albuquerque Center
Fri 09:11:51 PM 34.9003 -112.6081 252° West 483 556 40,000  Level Albuquerque Center
Fri 09:12:53 PM 34.8558 -112.7631 251° West 484 557 40,000  Level Albuquerque Center
Fri 09:13:54 PM 34.8125 -112.9181 251° West 484 557 40,000  Level Albuquerque Center
Fri 09:14:56 PM 34.7678 -113.0728 251° West 484 557 40,000 -488 Level Albuquerque Center
Fri 09:15:57 PM 34.7231 -113.2275 251° West 484 557 39,000 -1,721 Descending Albuquerque Center
Fri 09:16:58 PM 34.6789 -113.3789 251° West 480 552 36,500 -2,586 Descending Albuquerque Center
Fri 09:18:51 PM 34.5917 -113.6775 251° West 473 544 31,500 -2,229 Descending Los Angeles Center
Fri 09:19:53 PM 34.5453 -113.8286 250° West 479 551 30,000 -726 Descending Los Angeles Center
Fri 09:20:55 PM 34.4972 -113.9747 248° West 486 559 30,000 -439 Level Los Angeles Center
Fri 09:21:56 PM 34.4397 -114.1572 249° West 487 560 29,100 -1,171 Descending Los Angeles Center
Fri 09:22:58 PM 34.3911 -114.3075 249° West 482 555 27,600 -1,500 Descending Los Angeles Center
Fri 09:24:00 PM 34.3431 -114.4578 249° West 480 552 26,000 -1,500 Descending Los Angeles Center
Fri 09:25:02 PM 34.2956 -114.6022 248° West 466 536 24,500 -1,452 Descending Los Angeles Center
Fri 09:26:04 PM 34.2497 -114.7439 249° West 456 525 23,000 -1,452 Descending Los Angeles Center
Fri 09:27:06 PM 34.2019 -114.8864 248° West 459 528 21,500 -1,355 Descending Los Angeles Center
Fri 09:28:08 PM 34.1467 -115.0561 249° West 455 524 20,200 -1,122 Descending Los Angeles Center
Fri 09:29:09 PM 34.1006 -115.1947 248° West 448 516 19,200 -976 Descending Los Angeles Center
Fri 09:30:11 PM 34.0528 -115.3339 248° West 450 518 18,200 -1,161 Descending Los Angeles Center
Fri 09:31:13 PM 34.0067 -115.4700 248° West 443 510 16,800 -1,500 Descending Los Angeles Center
Fri 09:32:15 PM 33.9625 -115.6025 248° West 432 497 15,100 -1,645 Descending Los Angeles Center
Fri 09:33:17 PM 33.9208 -115.7294 248° West 418 481 13,400 -1,645 Descending Los Angeles Center
Fri 09:34:19 PM 33.9067 -115.8917 264° West 413 475 11,700 -1,317 Descending Los Angeles Center
Fri 09:35:20 PM 33.8983 -116.0044 265° West 351 404 10,700 -1,366 Descending Los Angeles Center
Fri 09:36:22 PM 33.8928 -116.1036 266° West 310 357 8,900 -1,597 Descending Los Angeles Center
Fri 09:37:24 PM 33.8864 -116.1994 265° West 299 344 7,400 -968 Descending Los Angeles Center
Fri 09:38:26 PM 33.8817 -116.2878 266° West 288 331 6,900 -927 Descending Los Angeles Center
Fri 09:39:27 PM 33.8764 -116.3500 264° West 239 275 5,500 -1,741 Descending Los Angeles Center
Fri 09:41:08 PM 33.8833 -116.4833 274° West 194 223 2,200 -1,473 Descending Southern California TRACON
Fri 09:42:14 PM 33.8667 -116.5333 248° West 143 165 1,400 -727 Descending Southern California TRACON
Fri 09:44:00 PM 33.8297 -116.5067 151° Southeast  Level Estimated
Fri 09:51:00 PM 33.8297 -116.5067 151° Southeast  Level Estimated

Login

Don't have an account? Register now (free) for customized features, flight alerts, and more!